createdAt,value
2022-11-05T00:01:58.641Z,71.90
2022-11-05T00:04:43.872Z,72.10
2022-11-05T00:07:36.552Z,72.60
2022-11-05T00:10:07.225Z,74.80
2022-11-05T00:12:52.536Z,74.50
2022-11-05T00:15:37.835Z,72.80
2022-11-05T00:18:04.554Z,73.60
2022-11-05T00:20:31.193Z,73.40
2022-11-05T00:23:20.710Z,73.30
2022-11-05T00:25:55.310Z,75.20
2022-11-05T00:28:22.022Z,75.60
2022-11-05T00:30:49.028Z,73.50
2022-11-05T00:33:15.721Z,73.40
2022-11-05T00:35:42.476Z,73.30
2022-11-05T00:38:09.180Z,73.40
2022-11-05T00:40:36.234Z,73.40
2022-11-05T00:43:21.447Z,73.80
2022-11-05T00:45:48.166Z,73.00
2022-11-05T00:48:33.280Z,74.40
2022-11-05T00:50:59.949Z,73.10
2022-11-05T00:53:26.739Z,73.60
2022-11-05T00:55:53.370Z,73.80
2022-11-05T00:58:22.111Z,73.90
2022-11-05T01:00:51.274Z,75.00
2022-11-05T01:03:20.565Z,74.80
2022-11-05T01:05:50.112Z,74.70
2022-11-05T01:08:19.184Z,75.10
2022-11-05T01:10:51.863Z,74.80
2022-11-05T01:13:27.816Z,75.70
2022-11-05T01:15:55.097Z,76.20
2022-11-05T01:18:23.654Z,74.40
2022-11-05T01:20:50.747Z,75.50
2022-11-05T01:23:18.110Z,74.10
2022-11-05T01:25:45.697Z,74.30
2022-11-05T01:28:12.313Z,73.70
2022-11-05T01:30:39.546Z,73.70
2022-11-05T01:33:06.441Z,74.50
2022-11-05T01:35:33.134Z,73.90
2022-11-05T01:37:59.901Z,74.00
2022-11-05T01:40:26.895Z,74.00
2022-11-05T01:42:53.516Z,73.90
2022-11-05T01:45:27.918Z,74.00
2022-11-05T01:47:57.816Z,76.10
2022-11-05T01:50:39.532Z,75.60
2022-11-05T01:53:36.365Z,75.20
2022-11-05T01:56:10.908Z,75.70
2022-11-05T01:59:09.595Z,76.20
2022-11-05T02:01:36.510Z,75.30
2022-11-05T02:04:08.245Z,74.40
2022-11-05T02:06:38.761Z,75.60
2022-11-05T02:09:11.260Z,75.60
2022-11-05T02:11:37.881Z,75.70
2022-11-05T02:14:04.873Z,74.20
2022-11-05T02:16:53.005Z,74.30
2022-11-05T02:20:00.321Z,76.30
2022-11-05T02:22:32.879Z,76.30
2022-11-05T02:25:12.967Z,75.80
2022-11-05T02:28:07.537Z,76.30
2022-11-05T02:30:47.641Z,76.10
2022-11-05T02:33:41.998Z,76.40
2022-11-05T02:36:42.105Z,75.90
2022-11-05T02:39:20.677Z,76.30
2022-11-05T02:41:47.458Z,73.70
2022-11-05T02:44:38.602Z,74.40
2022-11-05T02:47:38.912Z,76.30
2022-11-05T02:50:32.702Z,76.40
2022-11-05T02:53:16.062Z,76.10
2022-11-05T02:55:49.360Z,75.80
2022-11-05T02:58:16.002Z,76.10
2022-11-05T03:00:50.577Z,74.50
2022-11-05T03:03:19.172Z,76.50
2022-11-05T03:05:54.176Z,75.80
2022-11-05T03:08:31.261Z,75.90
2022-11-05T03:11:26.762Z,76.00
2022-11-05T03:14:17.637Z,75.70
2022-11-05T03:16:59.991Z,76.20
2022-11-05T03:19:33.486Z,75.50
2022-11-05T03:22:15.542Z,74.30
2022-11-05T03:25:02.140Z,75.90
2022-11-05T03:27:36.128Z,76.50
2022-11-05T03:30:09.042Z,76.30
2022-11-05T03:32:43.979Z,76.10
2022-11-05T03:35:34.338Z,76.20
2022-11-05T03:38:06.461Z,75.40
2022-11-05T03:40:36.697Z,75.80
2022-11-05T03:43:08.109Z,75.80
2022-11-05T03:45:41.035Z,76.00
2022-11-05T03:48:10.463Z,76.00
2022-11-05T03:50:49.442Z,75.40
2022-11-05T03:53:21.539Z,76.20
2022-11-05T03:55:54.999Z,75.60
2022-11-05T03:58:23.350Z,76.40
2022-11-05T04:00:50.992Z,75.30
2022-11-05T04:03:17.636Z,75.60
2022-11-05T04:05:44.509Z,75.40
2022-11-05T04:08:40.554Z,74.50
2022-11-05T04:11:28.050Z,74.00
2022-11-05T04:13:54.679Z,75.40
2022-11-05T04:16:39.882Z,74.50
2022-11-05T04:19:06.477Z,74.00
2022-11-05T04:21:51.659Z,74.50
2022-11-05T04:24:18.350Z,73.90
2022-11-05T04:26:45.319Z,74.50
2022-11-05T04:29:30.696Z,74.30
2022-11-05T04:31:57.685Z,74.20
2022-11-05T04:34:24.746Z,74.80
2022-11-05T04:36:53.007Z,74.40
2022-11-05T04:39:20.841Z,75.20
2022-11-05T04:41:48.528Z,75.20
2022-11-05T04:44:16.421Z,74.80
2022-11-05T04:46:43.119Z,75.00
2022-11-05T04:49:09.757Z,74.40
2022-11-05T04:51:36.445Z,74.30
2022-11-05T04:54:03.315Z,74.60
2022-11-05T04:56:30.035Z,74.60
2022-11-05T04:58:56.650Z,74.70
2022-11-05T05:01:24.818Z,74.50
2022-11-05T05:03:53.080Z,74.80
2022-11-05T05:06:20.160Z,75.60
2022-11-05T05:08:48.186Z,75.20
2022-11-05T05:11:16.863Z,75.20
2022-11-05T05:13:43.834Z,75.80
2022-11-05T05:16:19.313Z,75.10
2022-11-05T05:18:46.571Z,76.40
2022-11-05T05:21:32.594Z,74.40
2022-11-05T05:23:59.287Z,75.10
2022-11-05T05:26:26.115Z,74.50
2022-11-05T05:28:53.817Z,74.40
2022-11-05T05:31:21.522Z,75.10
2022-11-05T05:33:48.486Z,75.10
2022-11-05T05:36:15.097Z,74.80
2022-11-05T05:38:41.750Z,74.30
2022-11-05T05:41:08.457Z,74.10
2022-11-05T05:43:35.147Z,74.30
2022-11-05T05:46:03.470Z,74.40
2022-11-05T05:48:30.395Z,75.30
2022-11-05T05:51:15.069Z,74.50
2022-11-05T05:53:41.727Z,76.70
2022-11-05T05:56:08.412Z,74.40
2022-11-05T05:58:38.000Z,74.50
2022-11-05T06:01:17.273Z,75.80
2022-11-05T06:03:45.559Z,76.30
2022-11-05T06:06:13.332Z,74.70
2022-11-05T06:08:40.567Z,75.60
2022-11-05T06:11:08.069Z,75.10
2022-11-05T06:13:35.879Z,75.10
2022-11-05T06:16:04.526Z,75.50
2022-11-05T06:18:31.918Z,75.60
2022-11-05T06:21:03.019Z,75.20
2022-11-05T06:23:34.225Z,76.50
2022-11-05T06:26:19.288Z,75.10
2022-11-05T06:28:46.425Z,77.10
2022-11-05T06:31:14.227Z,75.20
2022-11-05T06:33:41.217Z,75.50
2022-11-05T06:36:12.457Z,75.20
2022-11-05T06:38:39.072Z,75.40
2022-11-05T06:41:10.228Z,74.80
2022-11-05T06:43:37.354Z,75.70
2022-11-05T06:46:04.535Z,74.70
2022-11-05T06:48:31.188Z,75.40
2022-11-05T06:50:58.152Z,74.70
2022-11-05T06:53:25.337Z,74.80
2022-11-05T06:55:52.154Z,74.60
2022-11-05T06:58:18.857Z,74.60
2022-11-05T07:00:46.068Z,74.60
2022-11-05T07:03:13.565Z,74.80
2022-11-05T07:05:45.085Z,75.10
2022-11-05T07:08:11.752Z,76.20
2022-11-05T07:10:38.481Z,74.50
2022-11-05T07:13:08.534Z,74.40
2022-11-05T07:15:36.478Z,74.40
2022-11-05T07:18:05.414Z,74.50
2022-11-05T07:20:34.129Z,75.10
2022-11-05T07:23:06.503Z,74.20
2022-11-05T07:25:34.104Z,76.20
2022-11-05T07:28:01.438Z,74.90
2022-11-05T07:30:29.015Z,74.70
2022-11-05T07:32:56.053Z,74.70
2022-11-05T07:35:23.017Z,74.30
2022-11-05T07:37:51.432Z,74.10
2022-11-05T07:40:21.446Z,75.00
2022-11-05T07:42:50.851Z,74.40
2022-11-05T07:45:17.945Z,75.20
2022-11-05T07:47:53.375Z,74.50
2022-11-05T07:50:24.003Z,75.90
2022-11-05T07:52:52.065Z,75.40
2022-11-05T07:55:20.010Z,74.40
2022-11-05T07:57:48.645Z,74.70
2022-11-05T08:00:18.012Z,75.10
2022-11-05T08:02:44.908Z,75.00
2022-11-05T08:05:11.734Z,73.60
2022-11-05T08:07:38.409Z,73.40
2022-11-05T08:10:05.406Z,73.40
2022-11-05T08:12:33.493Z,73.60
2022-11-05T08:15:00.161Z,74.10
2022-11-05T08:17:26.901Z,73.20
2022-11-05T08:19:53.591Z,73.40
2022-11-05T08:22:20.308Z,73.20
2022-11-05T08:24:46.989Z,73.00
2022-11-05T08:27:13.648Z,73.10
2022-11-05T08:29:40.280Z,72.80
2022-11-05T08:32:06.921Z,72.80
2022-11-05T08:34:33.612Z,72.60
2022-11-05T08:37:01.725Z,72.40
2022-11-05T08:39:28.500Z,73.10
2022-11-05T08:41:55.146Z,72.40
2022-11-05T08:44:22.074Z,72.10
2022-11-05T08:46:49.341Z,71.90
2022-11-05T08:49:16.088Z,73.00
2022-11-05T08:51:44.807Z,71.80
2022-11-05T08:54:11.454Z,73.80
2022-11-05T08:56:38.274Z,71.50
2022-11-05T08:59:05.073Z,71.30
2022-11-05T09:01:33.913Z,71.20
2022-11-05T09:04:00.665Z,71.50
2022-11-05T09:06:27.542Z,70.90
2022-11-05T09:08:54.375Z,71.70
2022-11-05T09:11:21.035Z,70.80
2022-11-05T09:13:47.685Z,70.60
2022-11-05T09:16:25.937Z,70.40
2022-11-05T09:18:52.933Z,72.50
2022-11-05T09:21:20.007Z,70.00
2022-11-05T09:23:47.359Z,70.50
2022-11-05T09:26:14.550Z,70.10
2022-11-05T09:28:43.184Z,70.30
2022-11-05T09:31:11.320Z,69.40
2022-11-05T09:33:40.314Z,70.10
2022-11-05T09:36:08.010Z,70.00
2022-11-05T09:38:35.602Z,69.50
2022-11-05T09:41:10.666Z,69.00
2022-11-05T09:43:44.308Z,69.90
2022-11-05T09:46:13.862Z,69.70
2022-11-05T09:48:42.065Z,69.60
2022-11-05T09:51:17.972Z,67.90
2022-11-05T09:53:48.518Z,69.20
2022-11-05T09:56:28.220Z,68.10
2022-11-05T09:59:04.527Z,69.30
2022-11-05T10:01:35.169Z,68.40
2022-11-05T10:04:16.184Z,68.50
2022-11-05T10:06:59.808Z,69.00
2022-11-05T10:09:31.202Z,68.40
2022-11-05T10:12:13.990Z,68.50
2022-11-05T10:14:46.633Z,69.10
2022-11-05T10:17:22.233Z,68.90
2022-11-05T10:19:58.020Z,69.60
2022-11-05T10:22:24.910Z,68.30
2022-11-05T10:24:53.307Z,66.30
2022-11-05T10:27:31.071Z,66.80
2022-11-05T10:29:58.406Z,67.50
2022-11-05T10:32:30.669Z,65.80
2022-11-05T10:35:00.796Z,66.60
2022-11-05T10:37:28.646Z,66.30
2022-11-05T10:39:55.598Z,65.90
2022-11-05T10:42:33.616Z,65.00
2022-11-05T10:45:25.213Z,66.10
2022-11-05T10:48:23.366Z,66.20
2022-11-05T10:50:50.056Z,66.50
2022-11-05T10:53:23.338Z,64.80
2022-11-05T10:55:51.787Z,66.00
2022-11-05T10:58:18.362Z,65.70
2022-11-05T11:00:52.273Z,64.50
2022-11-05T11:03:28.189Z,64.90
2022-11-05T11:06:00.754Z,66.30
2022-11-05T11:08:28.442Z,66.00
2022-11-05T11:10:58.977Z,64.50
2022-11-05T11:13:47.311Z,65.20
2022-11-05T11:16:16.817Z,65.00
2022-11-05T11:18:43.966Z,64.90
2022-11-05T11:21:16.809Z,63.80
2022-11-05T11:23:52.881Z,64.70
2022-11-05T11:26:21.659Z,64.00
2022-11-05T11:28:55.969Z,62.90
2022-11-05T11:31:25.722Z,64.30
2022-11-05T11:34:04.367Z,64.20
2022-11-05T11:36:41.250Z,63.70
2022-11-05T11:39:16.120Z,64.10
2022-11-05T11:41:44.996Z,64.10
2022-11-05T11:44:17.238Z,63.50
2022-11-05T11:46:49.128Z,63.90
2022-11-05T11:49:40.708Z,63.60
2022-11-05T11:52:14.382Z,63.80
2022-11-05T11:54:41.267Z,63.70
2022-11-05T11:57:25.155Z,62.20
2022-11-05T12:00:08.231Z,64.00
2022-11-05T12:03:00.354Z,63.30
2022-11-05T12:05:49.998Z,64.20
2022-11-05T12:08:28.729Z,63.80
2022-11-05T12:11:04.650Z,65.20
2022-11-05T12:13:44.101Z,62.00
2022-11-05T12:16:27.040Z,64.10
2022-11-05T12:19:29.826Z,64.20
2022-11-05T12:22:21.168Z,63.60
2022-11-05T12:25:06.752Z,63.50
2022-11-05T12:27:45.861Z,64.20
2022-11-05T12:30:18.681Z,61.10
2022-11-05T12:32:59.999Z,63.30
2022-11-05T12:36:04.919Z,63.00
2022-11-05T12:39:12.927Z,62.70
2022-11-05T12:41:42.660Z,61.90
2022-11-05T12:44:39.621Z,59.00
2022-11-05T12:47:18.310Z,60.90
2022-11-05T12:49:50.865Z,58.80
2022-11-05T12:52:46.420Z,60.90
2022-11-05T12:55:20.385Z,61.60
2022-11-05T12:57:49.573Z,61.30
2022-11-05T13:00:21.687Z,60.70
2022-11-05T13:03:07.402Z,61.90
2022-11-05T13:05:45.580Z,61.20
2022-11-05T13:08:36.287Z,61.50
2022-11-05T13:11:21.096Z,61.20
2022-11-05T13:14:07.781Z,61.20
2022-11-05T13:16:38.334Z,61.00
2022-11-05T13:19:14.840Z,60.70
2022-11-05T13:21:43.884Z,60.60
2022-11-05T13:24:19.075Z,60.60
2022-11-05T13:26:58.678Z,60.90
2022-11-05T13:29:47.793Z,61.80
2022-11-05T13:32:22.686Z,62.20
2022-11-05T13:34:49.499Z,61.70
2022-11-05T13:37:44.354Z,59.80
2022-11-05T13:40:14.809Z,61.30
2022-11-05T13:43:02.628Z,61.00
2022-11-05T13:46:07.126Z,61.90
2022-11-05T13:49:01.762Z,61.40
2022-11-05T13:51:40.249Z,61.00
2022-11-05T13:54:38.090Z,60.30
2022-11-05T13:57:18.716Z,60.60
2022-11-05T14:00:11.306Z,60.10
2022-11-05T14:02:43.547Z,61.40
2022-11-05T14:05:22.034Z,61.00
2022-11-05T14:07:49.570Z,61.60
2022-11-05T14:10:56.420Z,60.10
2022-11-05T14:13:24.922Z,61.50
2022-11-05T14:16:06.824Z,61.10
2022-11-05T14:18:42.743Z,61.10
2022-11-05T14:21:47.191Z,61.10
2022-11-05T14:24:22.822Z,61.10
2022-11-05T14:27:01.705Z,61.40
2022-11-05T14:29:40.478Z,61.60
2022-11-05T14:32:40.910Z,61.50
2022-11-05T14:35:16.945Z,61.90
2022-11-05T14:37:55.642Z,61.90
2022-11-05T14:40:22.310Z,62.30
2022-11-05T14:42:54.702Z,60.40
2022-11-05T14:45:35.142Z,62.10
2022-11-05T14:48:05.243Z,63.90
2022-11-05T14:50:34.486Z,62.10
2022-11-05T14:53:24.762Z,62.50
2022-11-05T14:56:04.941Z,62.50
2022-11-05T14:58:32.708Z,62.60
2022-11-05T15:01:01.194Z,61.10
2022-11-05T15:03:45.470Z,62.00
2022-11-05T15:06:27.514Z,62.70
2022-11-05T15:08:59.120Z,63.60
2022-11-05T15:11:37.056Z,62.40
2022-11-05T15:14:21.794Z,62.80
2022-11-05T15:16:52.098Z,63.50
2022-11-05T15:19:27.063Z,63.00
2022-11-05T15:21:56.639Z,63.40
2022-11-05T15:24:27.962Z,62.50
2022-11-05T15:27:36.808Z,62.60
2022-11-05T15:30:18.386Z,63.50
2022-11-05T15:32:45.363Z,64.20
2022-11-05T15:35:27.980Z,62.50
2022-11-05T15:38:01.747Z,64.20
2022-11-05T15:40:31.282Z,63.30
2022-11-05T15:43:17.573Z,63.30
2022-11-05T15:45:56.960Z,63.60
2022-11-05T15:48:23.650Z,62.60
2022-11-05T15:50:50.501Z,62.50
2022-11-05T15:53:47.622Z,62.40
2022-11-05T15:56:22.310Z,63.50
2022-11-05T15:59:04.797Z,64.20
2022-11-05T16:01:35.134Z,64.60
2022-11-05T16:04:17.647Z,63.50
2022-11-05T16:06:48.448Z,64.50
2022-11-05T16:09:32.658Z,63.80
2022-11-05T16:12:18.053Z,64.80
2022-11-05T16:14:57.096Z,65.40
2022-11-05T16:17:26.403Z,63.90
2022-11-05T16:19:53.845Z,64.20
2022-11-05T16:22:20.689Z,63.40
2022-11-05T16:24:48.156Z,63.60
2022-11-05T16:27:20.191Z,63.50
2022-11-05T16:29:52.864Z,64.00
2022-11-05T16:32:30.180Z,64.50
2022-11-05T16:35:01.024Z,65.20
2022-11-05T16:37:29.741Z,64.90
2022-11-05T16:39:56.452Z,64.40
2022-11-05T16:42:23.095Z,63.60
2022-11-05T16:44:51.446Z,63.60
2022-11-05T16:47:19.047Z,64.90
2022-11-05T16:49:48.037Z,64.50
2022-11-05T16:52:15.284Z,65.40
2022-11-05T16:54:42.203Z,64.70
2022-11-05T16:57:37.934Z,64.80
2022-11-05T17:00:05.373Z,66.50
2022-11-05T17:02:32.352Z,65.00
2022-11-05T17:04:59.156Z,64.80
2022-11-05T17:07:25.785Z,64.50
2022-11-05T17:09:52.396Z,64.60
2022-11-05T17:12:19.012Z,64.80
2022-11-05T17:14:45.670Z,64.70
2022-11-05T17:17:12.265Z,64.70
2022-11-05T17:19:42.279Z,64.70
2022-11-05T17:22:09.126Z,65.60
2022-11-05T17:24:35.947Z,65.30
2022-11-05T17:27:02.681Z,64.80
2022-11-05T17:29:29.336Z,64.80
2022-11-05T17:31:56.069Z,65.00
2022-11-05T17:34:22.709Z,65.90
2022-11-05T17:36:49.412Z,65.00
2022-11-05T17:39:16.127Z,65.00
2022-11-05T17:41:43.422Z,65.00
2022-11-05T17:44:10.600Z,65.20
2022-11-05T17:46:37.236Z,65.80
2022-11-05T17:49:03.981Z,65.00
2022-11-05T17:51:32.631Z,65.10
2022-11-05T17:53:59.273Z,65.10
2022-11-05T17:56:33.764Z,65.10
2022-11-05T17:59:01.651Z,65.00
2022-11-05T18:01:32.260Z,65.40
2022-11-05T18:04:03.821Z,66.60
2022-11-05T18:06:35.335Z,64.90
2022-11-05T18:09:03.777Z,65.30
2022-11-05T18:11:31.231Z,66.00
2022-11-05T18:13:57.937Z,65.80
2022-11-05T18:16:24.574Z,65.20
2022-11-05T18:18:51.258Z,66.20
2022-11-05T18:21:17.894Z,65.30
2022-11-05T18:23:44.995Z,65.20
2022-11-05T18:26:13.321Z,65.20
2022-11-05T18:28:40.778Z,66.20
2022-11-05T18:31:20.396Z,65.90
2022-11-05T18:33:51.064Z,67.80
2022-11-05T18:36:23.083Z,67.60
2022-11-05T18:38:49.839Z,67.60
2022-11-05T18:41:16.883Z,66.00
2022-11-05T18:43:43.522Z,65.90
2022-11-05T18:46:23.776Z,65.90
2022-11-05T18:48:58.938Z,66.00
2022-11-05T18:51:26.176Z,66.80
2022-11-05T18:53:54.254Z,66.60
2022-11-05T18:56:21.050Z,66.90
2022-11-05T18:58:47.729Z,66.20
2022-11-05T19:01:16.933Z,66.30
2022-11-05T19:03:44.601Z,67.10
2022-11-05T19:06:11.858Z,66.50
2022-11-05T19:08:38.972Z,66.70
2022-11-05T19:11:14.167Z,66.90
2022-11-05T19:13:40.832Z,67.70
2022-11-05T19:16:09.605Z,66.20
2022-11-05T19:18:36.852Z,67.00
2022-11-05T19:21:24.408Z,66.70
2022-11-05T19:23:52.171Z,68.30
2022-11-05T19:26:27.204Z,66.80
2022-11-05T19:28:56.527Z,67.30
2022-11-05T19:31:23.594Z,66.00
2022-11-05T19:33:51.467Z,66.50
2022-11-05T19:36:20.490Z,66.90
2022-11-05T19:38:49.587Z,66.70
2022-11-05T19:41:18.306Z,67.30
2022-11-05T19:43:45.641Z,67.20
2022-11-05T19:46:18.510Z,67.00
2022-11-05T19:48:45.832Z,68.30
2022-11-05T19:51:18.032Z,67.20
2022-11-05T19:53:44.875Z,68.40
2022-11-05T19:56:17.021Z,67.00
2022-11-05T19:58:44.249Z,67.40
2022-11-05T20:01:13.180Z,66.70
2022-11-05T20:03:40.405Z,67.50
2022-11-05T20:06:16.428Z,66.50
2022-11-05T20:09:07.041Z,67.20
2022-11-05T20:11:31.257Z,66.10
2022-11-05T20:13:57.989Z,65.90
2022-11-05T20:16:36.674Z,65.90
2022-11-05T20:19:04.996Z,67.70
2022-11-05T20:21:31.607Z,66.40
2022-11-05T20:23:59.262Z,66.00
2022-11-05T20:26:26.629Z,66.30
2022-11-05T20:28:53.495Z,66.30
2022-11-05T20:31:20.663Z,66.40
2022-11-05T20:33:47.398Z,66.40
2022-11-05T20:36:16.417Z,66.10
2022-11-05T20:38:47.146Z,67.20
2022-11-05T20:41:13.932Z,66.30
2022-11-05T20:43:41.009Z,66.70
2022-11-05T20:46:09.315Z,66.00
2022-11-05T20:48:36.311Z,66.90
2022-11-05T20:51:17.998Z,66.70
2022-11-05T20:53:46.348Z,67.70
2022-11-05T20:56:35.228Z,66.90
2022-11-05T20:59:02.289Z,67.80
2022-11-05T21:01:31.435Z,67.00
2022-11-05T21:03:59.542Z,67.50
2022-11-05T21:06:26.512Z,66.70
2022-11-05T21:08:54.035Z,66.90
2022-11-05T21:11:20.819Z,67.10
2022-11-05T21:13:47.843Z,66.90
2022-11-05T21:16:18.435Z,67.00
2022-11-05T21:18:46.001Z,67.80
2022-11-05T21:21:18.460Z,67.40
2022-11-05T21:23:45.638Z,68.30
2022-11-05T21:26:14.246Z,67.30
2022-11-05T21:28:41.429Z,68.00
2022-11-05T21:31:08.965Z,67.70
2022-11-05T21:33:35.689Z,67.20
2022-11-05T21:36:07.572Z,67.10
2022-11-05T21:38:34.235Z,68.80
2022-11-05T21:41:02.821Z,67.20
2022-11-05T21:43:29.933Z,68.00
2022-11-05T21:46:01.095Z,67.30
2022-11-05T21:48:27.753Z,69.00
2022-11-05T21:51:13.197Z,67.30
2022-11-05T21:53:59.184Z,66.90
2022-11-05T21:56:45.664Z,67.40
2022-11-05T21:59:37.349Z,68.20
2022-11-05T22:02:04.494Z,68.20
2022-11-05T22:04:36.993Z,67.60
2022-11-05T22:07:04.195Z,68.90
2022-11-05T22:09:31.323Z,67.60
2022-11-05T22:11:58.930Z,67.90
2022-11-05T22:14:26.749Z,68.60
2022-11-05T22:16:53.945Z,67.90
2022-11-05T22:19:21.249Z,67.50
2022-11-05T22:21:48.164Z,67.40
2022-11-05T22:24:15.507Z,67.30
2022-11-05T22:26:42.504Z,67.60
2022-11-05T22:29:09.197Z,68.70
2022-11-05T22:31:36.806Z,67.40
2022-11-05T22:34:04.806Z,67.40
2022-11-05T22:36:32.913Z,68.00
2022-11-05T22:39:00.115Z,68.20
2022-11-05T22:41:27.036Z,67.50
2022-11-05T22:43:53.721Z,67.40
2022-11-05T22:46:23.202Z,67.50
2022-11-05T22:48:50.235Z,68.30
2022-11-05T22:51:26.102Z,67.10
2022-11-05T22:53:54.677Z,68.40
2022-11-05T22:56:23.427Z,67.60
2022-11-05T22:58:50.522Z,68.10
2022-11-05T23:01:21.278Z,67.60
2022-11-05T23:03:49.632Z,68.60
2022-11-05T23:06:36.510Z,67.80
2022-11-05T23:09:24.429Z,68.10
2022-11-05T23:11:53.450Z,68.10
2022-11-05T23:14:20.706Z,68.60
2022-11-05T23:17:13.760Z,67.60
2022-11-05T23:19:59.816Z,66.70
2022-11-05T23:22:48.305Z,67.30
2022-11-05T23:25:20.370Z,68.30
2022-11-05T23:27:49.905Z,68.60
2022-11-05T23:30:20.035Z,68.40
2022-11-05T23:32:47.110Z,68.60
2022-11-05T23:35:14.605Z,67.40
2022-11-05T23:37:59.695Z,67.40
2022-11-05T23:40:29.002Z,66.80
2022-11-05T23:43:15.343Z,68.50
2022-11-05T23:45:58.836Z,67.90
2022-11-05T23:48:31.177Z,68.70
2022-11-05T23:51:11.240Z,67.10
2022-11-05T23:53:40.898Z,70.00
2022-11-05T23:56:12.409Z,69.10
2022-11-05T23:58:40.315Z,69.20
